»·PEaware :: N343SP KBVS-KBLI

N343SP :: KBVS-KBLI

FLIGHT INFORMATION

Flight Status: Arrived
Operator: Privately registered:
United States
More flights under this callsign
Pilot: Pierre A. (42891)
Aircraft: CESSNA 172 SKYHAWK
(C172)
More flights by this aircraft type
Origin: KBVS Skagit Regl
United States
Destination: KBLI Bellingham Intl
United States
More flights between these airports :: More routes between these airports
Route: BEZOV EGRET ACORD
File this flight plan on PilotEdge
Remarks:
Altitude:
(Current/Filed)
6,000ft
Speed:
(Current/Filed)
110kts
Departed: 07-Feb-23 04:06 PM
Arrived: 07-Feb-23 04:52 PM
Distance/Time
Traveled:
20nm/0:46
Distance/Time
To Go:
Arrived

Flight Plot

Page will automatically refresh every two minutes.

Flight plan parsing failed; only flown route is shown


Map Options




Map Legend


Flown Route
Filed Route
Departure Airport
Arrival Airport
Navaid (VOR, NDB)
Fix

Horizontal Profiles

Position Reports

Time Latitude Longitude Heading Altitude Ground
Speed
07-Feb-23 15:38 48.473821 -122.418575 126 120ft 0kts
07-Feb-23 15:39 48.473821 -122.418575 126 120ft 0kts
07-Feb-23 15:40 48.473821 -122.418575 126 120ft 0kts
07-Feb-23 15:41 48.473821 -122.418575 126 120ft 0kts
07-Feb-23 15:42 48.473821 -122.418575 126 120ft 0kts
07-Feb-23 15:43 48.473821 -122.418575 126 120ft 0kts
07-Feb-23 15:44 48.473821 -122.418575 126 120ft 0kts
07-Feb-23 15:45 48.473821 -122.418575 126 120ft 0kts
07-Feb-23 15:46 48.473821 -122.418575 126 120ft 0kts
07-Feb-23 15:47 48.473821 -122.418575 126 120ft 0kts
07-Feb-23 15:48 48.473821 -122.418575 126 120ft 0kts
07-Feb-23 15:49 48.473821 -122.418575 126 120ft 0kts
07-Feb-23 15:50 48.473821 -122.418575 126 120ft 0kts
07-Feb-23 15:51 48.473821 -122.418575 126 120ft 0kts
07-Feb-23 15:52 48.473821 -122.418575 126 120ft 0kts
07-Feb-23 15:53 48.473821 -122.418575 126 120ft 0kts
07-Feb-23 15:54 48.473821 -122.418575 126 120ft 0kts
07-Feb-23 15:55 48.473821 -122.418575 126 120ft 0kts
07-Feb-23 15:56 48.473821 -122.418575 126 120ft 0kts
07-Feb-23 15:57 48.473821 -122.418575 126 120ft 0kts
07-Feb-23 15:58 48.473821 -122.418575 126 120ft 0kts
07-Feb-23 15:59 48.473140 -122.417832 126 117ft 10kts
07-Feb-23 16:00 48.470270 -122.412000 125 97ft 7kts
07-Feb-23 16:01 48.469630 -122.412056 215 95ft 0kts
07-Feb-23 16:02 48.469630 -122.412056 215 95ft 0kts
07-Feb-23 16:03 48.469630 -122.412056 215 95ft 0kts
07-Feb-23 16:04 48.469630 -122.412056 215 95ft 0kts
07-Feb-23 16:05 48.474347 -122.423788 308 379ft 73kts
07-Feb-23 16:06 48.484672 -122.449807 260 1398ft 77kts
07-Feb-23 16:07 48.466773 -122.460974 180 2381ft 79kts
07-Feb-23 16:08 48.444878 -122.461261 180 3326ft 79kts
07-Feb-23 16:09 48.422730 -122.461331 181 4209ft 81kts
07-Feb-23 16:10 48.400183 -122.461654 180 5047ft 81kts
07-Feb-23 16:11 48.377270 -122.460947 159 5793ft 86kts
07-Feb-23 16:12 48.357839 -122.484836 233 6043ft 109kts
07-Feb-23 16:13 48.339282 -122.520461 236 5998ft 108kts
07-Feb-23 16:14 48.328557 -122.562439 266 5944ft 109kts
07-Feb-23 16:15 48.336543 -122.602258 352 5917ft 106kts
07-Feb-23 16:16 48.362059 -122.581923 27 5989ft 108kts
07-Feb-23 16:17 48.390023 -122.561256 25 6014ft 115kts
07-Feb-23 16:18 48.418939 -122.541095 29 6059ft 114kts
07-Feb-23 16:19 48.448481 -122.521728 23 6037ft 116kts
07-Feb-23 16:20 48.477240 -122.499881 29 6049ft 115kts
07-Feb-23 16:21 48.506386 -122.478455 25 6027ft 117kts
07-Feb-23 16:22 48.536232 -122.459937 358 6041ft 112kts
07-Feb-23 16:23 48.566268 -122.464981 348 6123ft 110kts
07-Feb-23 16:24 48.596163 -122.473957 349 6121ft 108kts
07-Feb-23 16:25 48.626116 -122.483223 349 6000ft 109kts
07-Feb-23 16:26 48.655407 -122.491391 347 5945ft 102kts
07-Feb-23 16:27 48.682793 -122.500279 349 5937ft 99kts
07-Feb-23 16:28 48.709342 -122.508401 350 5976ft 91kts
07-Feb-23 16:29 48.735808 -122.515589 345 6002ft 99kts
07-Feb-23 16:30 48.763031 -122.525090 348 6025ft 103kts
07-Feb-23 16:31 48.791564 -122.534024 347 6021ft 105kts
07-Feb-23 16:32 48.820817 -122.533404 1 6002ft 104kts
07-Feb-23 16:33 48.850406 -122.533605 1 5984ft 106kts
07-Feb-23 16:34 48.879823 -122.533956 355 6010ft 106kts
07-Feb-23 16:35 48.909319 -122.536546 2 6065ft 106kts
07-Feb-23 16:36 48.939894 -122.536296 358 6004ft 112kts
07-Feb-23 16:37 48.970829 -122.538435 3 6018ft 112kts
07-Feb-23 16:38 49.001347 -122.537413 350 5813ft 110kts
07-Feb-23 16:39 49.028387 -122.551006 6 5252ft 106kts
07-Feb-23 16:40 49.056160 -122.548854 326 4782ft 98kts
07-Feb-23 16:41 49.047015 -122.568360 154 4342ft 117kts
07-Feb-23 16:42 49.021111 -122.537645 156 3821ft 120kts
07-Feb-23 16:43 48.990509 -122.535096 182 3362ft 108kts
07-Feb-23 16:44 48.961681 -122.536281 192 2951ft 103kts
07-Feb-23 16:45 48.932663 -122.534041 188 2486ft 103kts
07-Feb-23 16:46 48.904793 -122.537435 198 2061ft 95kts
07-Feb-23 16:48 48.880184 -122.540075 190 1705ft 86kts
07-Feb-23 16:49 48.855382 -122.538336 187 1346ft 91kts
07-Feb-23 16:50 48.829164 -122.537342 190 719ft 97kts
07-Feb-23 16:51 48.804335 -122.537401 190 197ft 82kts
07-Feb-23 16:52 48.791341 -122.537604 174 159ft 0kts
07-Feb-23 16:53 48.790869 -122.536182 38 160ft 0kts

Navigation Log

Ident Type
Flight plan parsing failed, navigation log unavailable